createdAt,value
2019-05-05T08:32:23.728Z,99683.37
2019-05-05T08:35:36.383Z,99686.38
2019-05-05T08:38:07.445Z,99689.08
2019-05-05T08:40:37.595Z,99683.69
2019-05-05T08:43:08.039Z,99692.02
2019-05-05T08:45:39.711Z,99686.11
2019-05-05T08:48:10.619Z,99691.48
2019-05-05T08:50:40.930Z,99694.41
2019-05-05T08:53:13.676Z,99693.14
2019-05-05T08:55:44.297Z,99701.61
2019-05-05T08:58:15.140Z,99705.37
2019-05-05T09:00:45.285Z,99698.64
2019-05-05T09:03:15.809Z,99699.39
2019-05-05T09:05:46.311Z,99696.70
2019-05-05T09:08:17.046Z,99694.88
2019-05-05T09:10:47.053Z,99693.66
2019-05-05T09:13:17.129Z,99697.10
2019-05-05T09:15:47.436Z,99702.09
2019-05-05T09:18:17.785Z,99705.65
2019-05-05T09:20:47.740Z,99710.05
2019-05-05T09:23:18.281Z,99701.98
2019-05-05T09:25:50.846Z,99698.45
2019-05-05T09:28:28.655Z,99707.47
2019-05-05T09:30:59.060Z,99709.80
2019-05-05T09:33:29.485Z,99709.80
2019-05-05T09:35:59.942Z,99711.39
2019-05-05T09:38:30.588Z,99710.98
2019-05-05T09:41:01.192Z,99710.92
2019-05-05T09:43:31.600Z,99702.17
2019-05-05T09:46:03.761Z,99710.89
2019-05-05T09:48:33.764Z,99714.26
2019-05-05T09:51:04.485Z,99711.93
2019-05-05T09:53:35.932Z,99701.80
2019-05-05T09:56:06.684Z,99714.20
2019-05-05T09:58:38.221Z,99708.22
2019-05-05T10:01:08.652Z,99699.24
2019-05-05T10:03:38.773Z,99705.52
2019-05-05T10:06:08.900Z,99709.83
2019-05-05T10:08:40.694Z,99708.17
2019-05-05T10:11:12.300Z,99722.00
2019-05-05T10:13:44.231Z,99723.83
2019-05-05T10:16:14.862Z,99727.27
2019-05-05T10:18:44.958Z,99728.42
2019-05-05T10:21:17.869Z,99737.02
2019-05-05T10:23:49.894Z,99733.27
2019-05-05T10:26:23.870Z,99735.25
2019-05-05T10:28:54.471Z,99732.23
2019-05-05T10:31:25.023Z,99712.78
2019-05-05T10:33:59.807Z,99708.98
2019-05-05T10:36:29.981Z,99719.05
2019-05-05T10:39:08.049Z,99710.01
2019-05-05T10:41:40.186Z,99700.34
2019-05-05T10:44:10.818Z,99692.80
2019-05-05T10:46:43.101Z,99702.59
2019-05-05T10:49:13.722Z,99694.98
2019-05-05T10:51:44.917Z,99695.66
2019-05-05T10:54:15.374Z,99703.98
2019-05-05T10:56:46.119Z,99694.94
2019-05-05T10:59:16.777Z,99694.81
2019-05-05T11:01:47.361Z,99697.27
2019-05-05T11:04:17.809Z,99697.16
2019-05-05T11:06:49.422Z,99700.24
2019-05-05T11:09:21.280Z,99701.74
2019-05-05T11:11:51.738Z,99698.69
2019-05-05T11:14:22.290Z,99705.34
2019-05-05T11:16:54.637Z,99692.61
2019-05-05T11:19:24.322Z,99698.75
2019-05-05T11:21:54.474Z,99712.47
2019-05-05T11:24:24.525Z,99703.18
2019-05-05T11:26:54.942Z,99699.14
2019-05-05T11:29:25.227Z,99702.70
2019-05-05T11:31:55.983Z,99702.02
2019-05-05T11:34:27.755Z,99700.34
2019-05-05T11:37:12.157Z,99699.97
2019-05-05T11:39:44.404Z,99693.98
2019-05-05T11:43:56.804Z,99696.95
2019-05-05T11:46:27.163Z,99696.95
2019-05-05T11:48:58.742Z,99682.25
2019-05-05T11:51:29.103Z,99684.34
2019-05-05T11:53:59.551Z,99676.25
2019-05-05T11:56:30.214Z,99684.70
2019-05-05T11:59:00.768Z,99684.10
2019-05-05T12:01:31.260Z,99685.72
2019-05-05T12:04:04.075Z,99681.07
2019-05-05T12:06:34.641Z,99689.78
2019-05-05T12:09:07.199Z,99694.58
2019-05-05T12:11:37.543Z,99691.64
2019-05-05T12:14:10.264Z,99703.30
2019-05-05T12:16:40.206Z,99695.20
2019-05-05T12:19:13.556Z,99695.83
2019-05-05T12:21:44.209Z,99689.08
2019-05-05T12:24:17.469Z,99687.87
2019-05-05T12:26:55.260Z,99676.59
2019-05-05T12:29:27.019Z,99682.01
2019-05-05T12:31:57.290Z,99678.83
2019-05-05T12:34:27.300Z,99677.48
2019-05-05T12:36:57.571Z,99668.52
2019-05-05T12:39:27.766Z,99665.69
2019-05-05T12:41:59.033Z,99662.52
2019-05-05T12:44:33.997Z,99663.88
2019-05-05T12:47:08.383Z,99661.91
2019-05-05T12:49:38.611Z,99659.95
2019-05-05T12:52:08.752Z,99658.36
2019-05-05T12:54:57.146Z,99658.74
2019-05-05T12:57:27.243Z,99653.57
2019-05-05T12:59:59.122Z,99661.67
2019-05-05T13:02:29.424Z,99661.19
2019-05-05T13:04:59.620Z,99662.54
2019-05-05T13:07:29.644Z,99662.80
2019-05-05T13:09:59.823Z,99664.63
2019-05-05T13:12:29.969Z,99650.86
2019-05-05T13:15:00.373Z,99657.86
2019-05-05T13:17:33.786Z,99657.48
2019-05-05T13:20:11.622Z,99653.69
2019-05-05T13:22:49.152Z,99652.34
2019-05-05T13:25:23.820Z,99650.24
2019-05-05T13:27:57.324Z,99650.73
2019-05-05T13:30:28.773Z,99652.45
2019-05-05T13:32:59.019Z,99653.06
2019-05-05T13:35:29.376Z,99653.55
2019-05-05T13:37:59.536Z,99643.48
2019-05-05T13:40:29.516Z,99652.67
2019-05-05T13:43:01.098Z,99655.14
2019-05-05T13:45:50.591Z,99654.15
2019-05-05T13:48:20.741Z,99652.92
2019-05-05T13:50:53.888Z,99652.18
2019-05-05T13:53:23.930Z,99641.51
2019-05-05T13:56:02.487Z,99639.54
2019-05-05T13:58:26.656Z,99637.32
2019-05-05T14:00:56.950Z,99634.06
2019-05-05T16:58:20.808Z,99647.64
2019-05-05T17:03:09.667Z,99652.36
2019-05-05T17:05:39.975Z,99662.38
2019-05-05T17:08:10.106Z,99658.39
2019-05-05T17:10:40.047Z,99663.30
2019-05-05T17:13:26.651Z,99670.45
2019-05-05T17:16:10.092Z,99675.69
2019-05-05T17:18:44.839Z,99673.91
2019-05-05T17:21:22.212Z,99674.27
2019-05-05T17:23:54.003Z,99679.26
2019-05-05T17:26:24.405Z,99679.38
2019-05-05T17:28:54.866Z,99681.44
2019-05-05T17:31:25.031Z,99687.19
2019-05-05T17:33:57.157Z,99692.21
2019-05-05T17:36:28.009Z,99690.47
2019-05-05T17:38:57.988Z,99684.33
2019-05-05T17:41:30.993Z,99686.55
2019-05-05T17:44:08.347Z,99687.30
2019-05-05T17:46:40.036Z,99681.16
2019-05-05T17:49:26.867Z,99688.37
2019-05-05T17:51:59.914Z,99683.49
2019-05-05T17:54:34.439Z,99686.78
2019-05-05T17:57:05.993Z,99689.95
2019-05-05T17:59:36.006Z,99685.91
2019-05-05T18:02:07.172Z,99689.20
2019-05-05T18:04:37.892Z,99690.06
2019-05-05T18:07:16.057Z,99693.72
2019-05-05T18:09:56.819Z,99693.72
2019-05-05T18:12:44.827Z,99700.92
2019-05-05T18:15:34.008Z,99698.74
2019-05-05T18:18:05.648Z,99698.23
2019-05-05T18:20:35.844Z,99705.09
2019-05-05T18:23:05.838Z,99704.25
2019-05-05T18:25:37.672Z,99702.03
2019-05-05T18:28:16.962Z,99703.37
2019-05-05T18:30:39.398Z,99702.90
2019-05-05T18:33:09.532Z,99700.80
2019-05-05T18:35:39.525Z,99703.09
2019-05-05T18:38:10.554Z,99706.66
2019-05-05T18:40:43.402Z,99706.19
2019-05-05T18:43:15.126Z,99705.43
2019-05-05T18:45:45.369Z,99712.16
2019-05-05T18:48:15.354Z,99713.98
2019-05-05T18:50:45.527Z,99714.94
2019-05-05T18:53:15.719Z,99716.29
2019-05-05T18:55:46.326Z,99731.09
2019-05-05T18:58:27.274Z,99730.52
2019-05-05T19:01:05.398Z,99731.97
2019-05-05T19:03:38.538Z,99749.87
2019-05-05T19:06:18.038Z,99753.41
2019-05-05T19:09:01.975Z,99755.73
2019-05-05T19:11:34.037Z,99762.08
2019-05-05T19:14:03.956Z,99765.75
2019-05-05T19:16:34.666Z,99767.97
2019-05-05T19:19:04.508Z,99764.05
2019-05-05T19:21:39.158Z,99771.62
2019-05-05T19:24:09.200Z,99772.59
2019-05-05T19:26:39.058Z,99773.95
2019-05-05T19:29:09.109Z,99777.88
2019-05-05T19:31:38.552Z,99784.61
2019-05-05T19:34:08.040Z,99782.98
2019-05-05T19:36:37.907Z,99779.92
2019-05-05T19:39:08.123Z,99779.92
2019-05-05T19:41:37.656Z,99783.48
2019-05-05T19:44:07.252Z,99782.62
2019-05-05T19:46:50.577Z,99784.44
2019-05-05T19:49:20.393Z,99787.13
2019-05-05T19:51:50.310Z,99791.17
2019-05-05T19:54:22.121Z,99786.18
2019-05-05T19:56:51.507Z,99794.52
2019-05-05T19:59:21.177Z,99792.86
2019-05-05T20:01:50.595Z,99788.59
2019-05-05T20:04:20.305Z,99792.52
2019-05-05T20:06:49.773Z,99791.28
2019-05-05T20:09:19.205Z,99794.84
2019-05-05T20:11:50.022Z,99792.63
2019-05-05T20:14:19.590Z,99793.50
2019-05-05T20:17:09.261Z,99793.14
2019-05-05T20:19:40.283Z,99786.88
2019-05-05T20:22:09.809Z,99788.23
2019-05-05T20:24:39.974Z,99797.66
2019-05-05T20:27:09.668Z,99791.88
2019-05-05T20:29:39.121Z,99793.73
2019-05-05T20:32:08.627Z,99799.95
2019-05-05T20:34:39.792Z,99800.46
2019-05-05T20:37:14.155Z,99798.24
2019-05-05T20:39:44.264Z,99800.94
2019-05-05T20:42:15.642Z,99797.96
2019-05-05T20:44:46.888Z,99801.52
2019-05-05T20:47:16.340Z,99807.02
2019-05-05T20:49:47.511Z,99804.33
2019-05-05T20:52:17.017Z,99807.98
2019-05-05T20:54:46.584Z,99806.27
2019-05-05T20:57:17.695Z,99802.70
2019-05-05T20:59:48.315Z,99810.89
2019-05-05T21:02:17.979Z,99806.74
2019-05-05T21:04:48.555Z,99808.56
2019-05-05T21:07:18.282Z,99805.88
2019-05-05T21:09:49.598Z,99810.42
2019-05-05T21:12:19.317Z,99808.56
2019-05-05T21:14:48.986Z,99811.77
2019-05-05T21:17:18.593Z,99806.86
2019-05-05T21:19:49.250Z,99803.77
2019-05-05T21:22:35.884Z,99803.41
2019-05-05T21:25:09.009Z,99801.08
2019-05-05T21:27:38.492Z,99803.41
2019-05-05T21:30:07.932Z,99798.97
2019-05-05T21:32:37.683Z,99798.13
2019-05-05T21:35:08.611Z,99799.48
2019-05-05T21:37:39.967Z,99801.77
2019-05-05T21:40:10.198Z,99801.77
2019-05-05T21:42:39.919Z,99795.16
2019-05-05T21:45:09.448Z,99807.27
2019-05-05T21:47:38.957Z,99801.02
2019-05-05T21:50:09.986Z,99799.67
2019-05-05T21:52:43.884Z,99807.27
2019-05-05T21:55:16.220Z,99803.83
2019-05-05T21:57:55.242Z,99802.87
2019-05-05T22:00:44.250Z,99803.93
2019-05-05T22:03:15.439Z,99804.80
2019-05-05T22:05:44.843Z,99805.28
2019-05-05T22:08:14.429Z,99803.06
2019-05-05T22:10:44.176Z,99808.92
2019-05-05T22:13:14.273Z,99804.88
2019-05-05T22:15:45.709Z,99806.34
2019-05-05T22:18:15.202Z,99804.88
2019-05-05T22:20:50.677Z,99800.59
2019-05-05T22:23:20.167Z,99801.07
2019-05-05T22:25:49.729Z,99798.85
2019-05-05T22:28:19.215Z,99809.63
2019-05-05T22:30:49.046Z,99802.53
2019-05-05T22:33:18.585Z,99805.22
2019-05-05T22:35:48.211Z,99815.52
2019-05-05T22:38:17.785Z,99811.95
2019-05-05T22:40:47.224Z,99814.64
2019-05-05T22:43:16.956Z,99811.19
2019-05-05T22:45:46.418Z,99815.23
2019-05-05T22:48:15.874Z,99825.52
2019-05-05T22:50:45.507Z,99814.36
2019-05-05T22:53:16.222Z,99816.15
2019-05-05T22:55:45.791Z,99814.36
2019-05-05T22:58:15.349Z,99814.44
2019-05-05T23:00:45.032Z,99814.91
2019-05-05T23:03:31.568Z,99816.37
2019-05-05T23:06:06.682Z,99819.54
2019-05-05T23:08:36.169Z,99811.45
2019-05-05T23:11:05.704Z,99814.27
2019-05-05T23:13:35.245Z,99820.13
2019-05-05T23:16:12.108Z,99822.81
2019-05-05T23:18:44.324Z,99824.67
2019-05-05T23:21:18.539Z,99824.67
2019-05-05T23:23:58.742Z,99826.48
2019-05-05T23:26:30.866Z,99823.40
2019-05-05T23:29:00.818Z,99822.56
2019-05-05T23:31:30.274Z,99829.30
2019-05-05T23:33:59.938Z,99829.77
2019-05-05T23:36:29.772Z,99827.19
2019-05-05T23:38:59.218Z,99828.13
2019-05-05T23:41:28.823Z,99830.83
2019-05-05T23:43:58.971Z,99833.98
2019-05-05T23:46:29.188Z,99837.19
2019-05-05T23:49:00.998Z,99830.06
2019-05-05T23:51:30.364Z,99828.36
2019-05-05T23:53:59.883Z,99832.87
2019-05-05T23:56:29.479Z,99833.23
2019-05-05T23:58:58.990Z,99834.69
